createdAt,value
2023-05-14T03:15:19.968Z,5
2023-05-14T03:30:19.987Z,4.3
2023-05-14T03:45:19.873Z,11.6
2023-05-14T04:03:06.643Z,23
2023-05-14T04:15:20.176Z,36
2023-05-14T04:30:19.569Z,51
2023-05-14T04:45:19.370Z,63.2
2023-05-14T05:00:22.402Z,74.6
2023-05-14T05:15:26.680Z,86.7
2023-05-14T05:30:20.119Z,94
2023-05-14T05:45:19.924Z,97.1
2023-05-14T06:00:24.689Z,102.4
2023-05-14T06:15:20.302Z,109.3
2023-05-14T06:30:20.669Z,111
2023-05-14T06:45:19.534Z,117.2
2023-05-14T07:00:20.393Z,130.8
2023-05-14T07:15:19.660Z,148.4
2023-05-14T07:30:19.950Z,169.3
2023-05-14T07:45:19.906Z,170.1
2023-05-14T08:00:20.211Z,174.5
2023-05-14T08:15:20.055Z,193
2023-05-14T08:30:20.204Z,197.8
2023-05-14T08:45:19.998Z,217.8
2023-05-14T09:00:19.786Z,214.7
2023-05-14T09:15:20.224Z,224.7
2023-05-14T09:30:19.737Z,217.1
2023-05-14T09:45:19.840Z,219.7
2023-05-14T10:00:20.122Z,242
2023-05-14T10:15:20.058Z,248.6
2023-05-14T10:30:20.319Z,199.9
2023-05-14T10:45:20.278Z,223.5
2023-05-14T11:00:20.908Z,225.3
2023-05-14T11:15:20.046Z,209.7
2023-05-14T11:30:30.732Z,196.4
2023-05-14T11:45:20.626Z,198.3
2023-05-14T12:00:20.547Z,241.1
2023-05-14T12:15:19.921Z,314.3
2023-05-14T12:30:34.261Z,359.8
2023-05-14T12:45:20.217Z,241
2023-05-14T13:00:20.013Z,164.6
2023-05-14T13:15:20.253Z,139.1
2023-05-14T13:30:20.501Z,222.2
2023-05-14T13:45:20.074Z,410.3
2023-05-14T14:00:20.204Z,288.9
2023-05-14T14:15:19.997Z,247
2023-05-14T14:30:20.490Z,240.6
2023-05-14T14:45:19.848Z,348.9
2023-05-14T15:00:20.166Z,203.5
2023-05-14T15:15:20.327Z,179.3
2023-05-14T15:30:20.833Z,202.4
2023-05-14T15:45:20.388Z,259.4
2023-05-14T16:00:21.315Z,465.5
2023-05-14T16:15:20.286Z,474.4
2023-05-14T16:30:19.533Z,451.5
2023-05-14T16:45:20.122Z,243.3
2023-05-14T17:00:19.595Z,329.2
2023-05-14T17:15:20.566Z,321.8
2023-05-14T17:30:20.138Z,279.2
2023-05-14T17:45:20.697Z,226.5
2023-05-14T18:00:20.409Z,159.9
2023-05-14T18:15:20.346Z,73.9
2023-05-14T18:30:20.099Z,35.2
2023-05-14T18:45:19.876Z,18.8
2023-05-14T19:00:21.580Z,8.5
2023-05-14T19:15:20.010Z,3
2023-05-14T19:30:20.054Z,1.1
2023-05-14T19:45:29.585Z,1.1
2023-05-14T20:00:21.163Z,1.1
2023-05-14T20:15:20.223Z,1.1
